createdAt,value
2022-11-01T00:02:01.130Z,11.38
2022-11-01T00:04:27.476Z,11.50
2022-11-01T00:06:53.861Z,11.48
2022-11-01T00:09:20.185Z,11.68
2022-11-01T00:11:46.837Z,11.20
2022-11-01T00:14:15.123Z,11.48
2022-11-01T00:16:41.841Z,10.98
2022-11-01T00:19:08.753Z,13.20
2022-11-01T00:21:35.468Z,12.93
2022-11-01T00:24:01.814Z,11.85
2022-11-01T00:26:28.177Z,13.45
2022-11-01T00:28:54.559Z,12.43
2022-11-01T00:31:21.580Z,12.48
2022-11-01T00:33:48.221Z,12.93
2022-11-01T00:36:15.073Z,13.32
2022-11-01T00:38:41.533Z,13.35
2022-11-01T00:41:08.404Z,14.35
2022-11-01T00:43:36.023Z,13.00
2022-11-01T00:46:03.570Z,12.77
2022-11-01T00:48:30.224Z,13.18
2022-11-01T00:50:56.528Z,12.52
2022-11-01T00:53:22.984Z,13.02
2022-11-01T00:55:49.294Z,13.48
2022-11-01T00:58:15.637Z,14.77
2022-11-01T01:00:42.012Z,14.57
2022-11-01T01:03:08.524Z,14.60
2022-11-01T01:05:35.552Z,14.02
2022-11-01T01:08:02.556Z,12.73
2022-11-01T01:10:29.235Z,15.05
2022-11-01T01:12:55.602Z,13.02
2022-11-01T01:15:21.934Z,15.00
2022-11-01T01:17:48.382Z,14.13
2022-11-01T01:20:14.720Z,13.48
2022-11-01T01:22:41.139Z,12.85
2022-11-01T01:25:07.924Z,12.23
2022-11-01T01:27:34.303Z,12.13
2022-11-01T01:30:00.615Z,12.90
2022-11-01T01:32:26.972Z,12.82
2022-11-01T01:34:53.299Z,12.25
2022-11-01T01:37:20.148Z,12.52
2022-11-01T01:39:46.668Z,12.32
2022-11-01T01:42:33.053Z,11.30
2022-11-01T01:44:59.301Z,11.52
2022-11-01T01:47:34.197Z,12.00
2022-11-01T01:52:44.069Z,11.07
2022-11-01T01:55:12.490Z,11.23
2022-11-01T01:57:40.848Z,11.55
2022-11-01T02:00:08.336Z,11.57
2022-11-01T02:02:34.918Z,11.95
2022-11-01T02:05:08.539Z,12.13
2022-11-01T02:07:34.893Z,11.43
2022-11-01T02:10:01.405Z,11.35
2022-11-01T02:12:35.272Z,12.52
2022-11-01T02:15:03.085Z,10.75
2022-11-01T02:18:08.722Z,12.27
2022-11-01T02:20:53.148Z,13.10
2022-11-01T02:23:42.312Z,10.83
2022-11-01T02:26:14.562Z,11.52
2022-11-01T02:29:05.642Z,13.38
2022-11-01T02:32:17.967Z,12.25
2022-11-01T02:34:46.759Z,13.32
2022-11-01T02:37:28.117Z,12.77
2022-11-01T02:40:01.237Z,11.13
2022-11-01T02:42:32.533Z,12.77
2022-11-01T02:45:08.957Z,11.35
2022-11-01T02:47:38.497Z,11.50
2022-11-01T02:50:09.405Z,12.60
2022-11-01T02:52:40.148Z,12.20
2022-11-01T02:55:18.966Z,12.43
2022-11-01T02:57:46.421Z,12.07
2022-11-01T03:00:25.039Z,11.00
2022-11-01T03:03:20.707Z,11.60
2022-11-01T03:08:42.565Z,10.95
2022-11-01T03:11:19.509Z,11.95
2022-11-01T03:14:09.965Z,11.07
2022-11-01T03:16:48.599Z,11.00
2022-11-01T03:19:51.549Z,11.57
2022-11-01T03:22:30.957Z,11.90
2022-11-01T03:25:03.013Z,12.07
2022-11-01T03:27:37.881Z,12.43
2022-11-01T03:32:48.364Z,12.63
2022-11-01T03:35:38.600Z,11.50
2022-11-01T03:38:10.738Z,11.18
2022-11-01T03:40:41.464Z,11.15
2022-11-01T03:43:11.893Z,13.98
2022-11-01T03:45:39.592Z,11.57
2022-11-01T03:48:06.534Z,11.45
2022-11-01T03:50:34.043Z,13.20
2022-11-01T03:53:00.628Z,11.27
2022-11-01T03:55:27.026Z,11.98
2022-11-01T03:57:56.369Z,12.05
2022-11-01T04:00:31.463Z,11.85
2022-11-01T04:02:59.134Z,11.10
2022-11-01T04:05:27.857Z,10.52
2022-11-01T04:07:54.352Z,9.95
2022-11-01T04:10:22.267Z,11.02
2022-11-01T04:12:49.820Z,10.60
2022-11-01T04:15:17.857Z,11.38
2022-11-01T04:17:44.172Z,11.40
2022-11-01T04:20:10.665Z,10.25
2022-11-01T04:22:39.345Z,11.10
2022-11-01T04:25:05.744Z,9.90
2022-11-01T04:27:32.058Z,9.70
2022-11-01T04:29:58.349Z,11.07
2022-11-01T04:32:24.632Z,10.75
2022-11-01T04:34:50.957Z,11.07
2022-11-01T04:37:17.249Z,13.02
2022-11-01T04:39:43.557Z,12.43
2022-11-01T04:42:09.872Z,12.32
2022-11-01T04:44:36.181Z,12.05
2022-11-01T04:47:02.548Z,12.15
2022-11-01T04:49:28.833Z,12.10
2022-11-01T04:51:55.146Z,12.15
2022-11-01T04:54:21.466Z,11.80
2022-11-01T04:56:47.757Z,12.27
2022-11-01T04:59:14.091Z,12.88
2022-11-01T05:01:40.525Z,11.18
2022-11-01T05:04:06.967Z,10.20
2022-11-01T05:06:33.285Z,10.02
2022-11-01T05:08:59.673Z,10.70
2022-11-01T05:11:26.079Z,9.50
2022-11-01T05:13:52.477Z,10.15
2022-11-01T05:16:20.112Z,9.18
2022-11-01T05:18:47.546Z,8.55
2022-11-01T05:21:13.922Z,8.95
2022-11-01T05:23:40.230Z,7.53
2022-11-01T05:26:06.742Z,7.80
2022-11-01T05:28:33.238Z,6.72
2022-11-01T05:30:59.613Z,6.30
2022-11-01T05:33:26.033Z,6.43
2022-11-01T05:35:52.404Z,5.90
2022-11-01T05:38:18.705Z,5.90
2022-11-01T05:40:45.097Z,6.25
2022-11-01T05:43:11.436Z,6.47
2022-11-01T05:45:37.786Z,6.22
2022-11-01T05:48:04.691Z,5.00
2022-11-01T05:50:31.346Z,6.43
2022-11-01T05:53:08.206Z,4.95
2022-11-01T05:55:35.371Z,6.00
2022-11-01T05:58:02.331Z,5.07
2022-11-01T06:00:28.669Z,5.30
2022-11-01T06:02:58.106Z,5.30
2022-11-01T06:05:25.456Z,5.22
2022-11-01T06:07:51.783Z,5.43
2022-11-01T06:10:18.429Z,5.43
2022-11-01T06:12:44.765Z,5.25
2022-11-01T06:15:11.617Z,5.60
2022-11-01T06:17:37.938Z,5.50
2022-11-01T06:20:05.533Z,5.28
2022-11-01T06:22:34.236Z,5.10
2022-11-01T06:25:00.553Z,5.28
2022-11-01T06:27:28.109Z,5.63
2022-11-01T06:29:54.427Z,4.97
2022-11-01T06:32:20.785Z,5.72
2022-11-01T06:34:47.080Z,5.80
2022-11-01T06:37:13.391Z,4.90
2022-11-01T06:39:39.777Z,4.93
2022-11-01T06:42:06.157Z,5.28
2022-11-01T06:44:32.489Z,4.80
2022-11-01T06:46:58.821Z,4.93
2022-11-01T06:49:25.118Z,4.50
2022-11-01T06:51:51.489Z,5.40
2022-11-01T06:54:17.795Z,4.75
2022-11-01T06:56:47.340Z,5.10
2022-11-01T06:59:14.136Z,4.45
2022-11-01T07:01:40.599Z,4.47
2022-11-01T07:04:07.049Z,4.25
2022-11-01T07:06:33.429Z,4.63
2022-11-01T07:09:00.021Z,4.57
2022-11-01T07:11:31.254Z,4.63
2022-11-01T07:13:58.128Z,4.93
2022-11-01T07:16:25.206Z,4.43
2022-11-01T07:18:52.137Z,4.70
2022-11-01T07:21:18.551Z,4.60
2022-11-01T07:23:44.927Z,4.45
2022-11-01T07:26:11.237Z,4.50
2022-11-01T07:28:37.623Z,4.40
2022-11-01T07:31:04.050Z,4.45
2022-11-01T07:33:30.408Z,4.50
2022-11-01T07:35:56.797Z,4.10
2022-11-01T07:38:23.198Z,3.90
2022-11-01T07:40:49.849Z,4.25
2022-11-01T07:43:17.848Z,3.92
2022-11-01T07:45:44.173Z,4.13
2022-11-01T07:48:13.482Z,3.80
2022-11-01T07:50:41.440Z,4.50
2022-11-01T07:53:10.301Z,3.95
2022-11-01T07:55:37.232Z,3.47
2022-11-01T07:58:04.937Z,4.20
2022-11-01T08:00:31.856Z,3.75
2022-11-01T08:03:08.932Z,4.00
2022-11-01T08:05:35.884Z,3.97
2022-11-01T08:08:03.069Z,3.58
2022-11-01T08:10:29.720Z,3.40
2022-11-01T08:13:04.707Z,3.60
2022-11-01T08:15:31.198Z,3.47
2022-11-01T08:17:58.354Z,3.88
2022-11-01T08:20:25.931Z,3.30
2022-11-01T08:22:53.334Z,2.97
2022-11-01T08:25:20.504Z,3.92
2022-11-01T08:27:47.522Z,3.33
2022-11-01T08:30:15.772Z,3.40
2022-11-01T08:32:42.115Z,3.17
2022-11-01T08:35:09.201Z,3.28
2022-11-01T08:37:35.505Z,3.30
2022-11-01T08:40:01.942Z,2.97
2022-11-01T08:42:28.245Z,2.85
2022-11-01T08:44:54.559Z,2.50
2022-11-01T08:47:20.889Z,2.85
2022-11-01T08:49:47.216Z,2.00
2022-11-01T08:52:13.532Z,2.40
2022-11-01T08:54:39.857Z,1.90
2022-11-01T08:57:06.160Z,2.00
2022-11-01T08:59:32.486Z,1.63
2022-11-01T09:01:58.887Z,2.00
2022-11-01T09:04:25.351Z,1.88
2022-11-01T09:06:51.671Z,1.80
2022-11-01T09:09:18.071Z,1.52
2022-11-01T09:11:44.417Z,1.88
2022-11-01T09:14:10.717Z,2.03
2022-11-01T09:16:37.040Z,1.80
2022-11-01T09:19:03.443Z,2.10
2022-11-01T09:21:31.889Z,1.70
2022-11-01T09:23:58.608Z,1.75
2022-11-01T09:26:24.958Z,1.80
2022-11-01T09:28:51.289Z,1.20
2022-11-01T09:31:21.536Z,1.45
2022-11-01T09:33:48.301Z,1.42
2022-11-01T09:36:14.629Z,1.40
2022-11-01T09:38:40.925Z,1.27
2022-11-01T09:41:24.300Z,1.20
2022-11-01T09:43:52.826Z,1.10
2022-11-01T09:51:25.743Z,1.13
2022-11-01T09:53:59.321Z,1.38
2022-11-01T09:56:30.510Z,1.35
2022-11-01T09:59:28.954Z,1.58
2022-11-01T10:02:10.854Z,1.90
2022-11-01T10:05:05.266Z,2.10
2022-11-01T10:07:49.840Z,1.45
2022-11-01T10:10:40.131Z,1.60
2022-11-01T10:13:37.026Z,1.73
2022-11-01T10:16:33.413Z,1.70
2022-11-01T10:19:05.727Z,2.15
2022-11-01T10:21:39.048Z,2.10
2022-11-01T10:24:06.914Z,1.77
2022-11-01T10:26:33.844Z,1.75
2022-11-01T10:29:29.713Z,2.25
2022-11-01T10:31:56.686Z,1.73
2022-11-01T10:34:26.445Z,1.75
2022-11-01T10:36:57.401Z,1.73
2022-11-01T10:40:03.015Z,1.58
2022-11-01T10:42:30.230Z,1.73
2022-11-01T10:45:01.237Z,1.60
2022-11-01T10:47:28.026Z,2.15
2022-11-01T10:50:06.036Z,1.70
2022-11-01T10:52:46.001Z,1.40
2022-11-01T10:55:15.806Z,1.55
2022-11-01T10:57:47.200Z,1.65
2022-11-01T11:00:17.378Z,1.70
2022-11-01T11:02:48.551Z,2.20
2022-11-01T11:05:15.713Z,2.22
2022-11-01T11:07:43.783Z,1.80
2022-11-01T11:10:23.979Z,2.20
2022-11-01T11:12:55.481Z,1.90
2022-11-01T11:15:43.833Z,1.70
2022-11-01T11:18:19.472Z,2.42
2022-11-01T11:20:50.293Z,2.20
2022-11-01T11:23:19.561Z,2.38
2022-11-01T11:25:45.923Z,2.33
2022-11-01T11:28:23.627Z,2.42
2022-11-01T11:30:50.123Z,2.20
2022-11-01T11:33:18.157Z,2.33
2022-11-01T11:35:53.378Z,2.78
2022-11-01T11:38:40.272Z,2.78
2022-11-01T11:41:09.251Z,2.03
2022-11-01T11:43:35.561Z,2.58
2022-11-01T11:46:06.052Z,2.72
2022-11-01T11:48:32.713Z,2.03
2022-11-01T11:51:04.802Z,2.03
2022-11-01T11:53:31.564Z,3.22
2022-11-01T11:56:01.093Z,1.90
2022-11-01T11:58:43.198Z,2.53
2022-11-01T12:01:14.893Z,1.92
2022-11-01T12:03:53.139Z,2.28
2022-11-01T12:06:21.933Z,2.67
2022-11-01T12:08:51.288Z,3.05
2022-11-01T12:11:17.891Z,2.65
2022-11-01T12:13:59.350Z,2.67
2022-11-01T12:16:25.807Z,2.65
2022-11-01T12:19:00.661Z,2.63
2022-11-01T12:24:23.144Z,2.67
2022-11-01T12:26:51.927Z,2.72
2022-11-01T12:29:32.573Z,2.33
2022-11-01T12:32:12.234Z,3.17
2022-11-01T12:34:42.672Z,2.83
2022-11-01T12:37:33.796Z,2.70
2022-11-01T12:40:36.661Z,2.60
2022-11-01T12:43:16.234Z,2.33
2022-11-01T12:45:47.758Z,2.35
2022-11-01T12:48:21.888Z,2.28
2022-11-01T12:50:55.717Z,2.78
2022-11-01T12:53:28.217Z,2.72
2022-11-01T12:55:57.865Z,2.95
2022-11-01T12:58:25.015Z,2.35
2022-11-01T13:01:07.689Z,2.42
2022-11-01T13:03:59.283Z,3.10
2022-11-01T13:06:36.947Z,2.20
2022-11-01T13:09:38.776Z,2.85
2022-11-01T13:12:31.012Z,2.17
2022-11-01T13:14:57.256Z,2.00
2022-11-01T13:17:46.378Z,2.80
2022-11-01T13:20:40.596Z,2.65
2022-11-01T13:23:36.848Z,2.55
2022-11-01T13:26:18.601Z,2.60
2022-11-01T13:29:02.773Z,2.65
2022-11-01T13:31:44.435Z,3.15
2022-11-01T13:34:44.813Z,2.15
2022-11-01T13:37:20.911Z,3.20
2022-11-01T13:39:50.160Z,2.60
2022-11-01T13:42:20.705Z,3.05
2022-11-01T13:44:52.056Z,2.25
2022-11-01T13:47:27.341Z,2.35
2022-11-01T13:50:18.383Z,2.33
2022-11-01T13:53:04.488Z,2.33
2022-11-01T13:55:38.808Z,2.40
2022-11-01T13:58:06.057Z,2.53
2022-11-01T14:00:44.282Z,2.45
2022-11-01T14:03:19.333Z,2.50
2022-11-01T14:05:46.238Z,2.50
2022-11-01T14:08:14.439Z,2.00
2022-11-01T14:10:49.211Z,2.13
2022-11-01T14:15:55.829Z,2.20
2022-11-01T14:18:22.231Z,2.45
2022-11-01T14:20:55.818Z,2.70
2022-11-01T14:23:28.263Z,2.63
2022-11-01T14:26:19.312Z,2.22
2022-11-01T14:28:47.911Z,1.92
2022-11-01T14:31:17.297Z,2.33
2022-11-01T14:33:44.817Z,2.20
2022-11-01T14:36:13.019Z,3.08
2022-11-01T14:38:53.654Z,2.17
2022-11-01T14:41:22.454Z,2.38
2022-11-01T14:43:52.373Z,1.88
2022-11-01T14:46:25.126Z,2.10
2022-11-01T14:48:59.109Z,2.17
2022-11-01T14:51:34.977Z,1.93
2022-11-01T14:54:36.907Z,2.30
2022-11-01T14:57:17.981Z,2.10
2022-11-01T14:59:44.317Z,2.22
2022-11-01T15:02:11.269Z,3.00
2022-11-01T15:04:43.009Z,2.05
2022-11-01T15:07:26.220Z,2.53
2022-11-01T15:09:57.420Z,2.90
2022-11-01T15:12:26.205Z,2.33
2022-11-01T15:14:55.251Z,2.28
2022-11-01T15:17:24.286Z,2.78
2022-11-01T15:19:51.882Z,2.08
2022-11-01T15:22:20.906Z,2.67
2022-11-01T15:24:51.261Z,2.45
2022-11-01T15:27:20.890Z,2.30
2022-11-01T15:29:48.379Z,2.22
2022-11-01T15:32:28.438Z,2.42
2022-11-01T15:34:57.191Z,2.38
2022-11-01T15:37:26.594Z,2.58
2022-11-01T15:39:52.950Z,2.60
2022-11-01T15:42:22.278Z,2.50
2022-11-01T15:44:48.587Z,2.42
2022-11-01T15:47:19.839Z,2.40
2022-11-01T15:50:02.902Z,2.20
2022-11-01T15:52:31.903Z,2.08
2022-11-01T15:55:05.088Z,2.30
2022-11-01T15:57:36.714Z,2.28
2022-11-01T16:00:05.411Z,1.80
2022-11-01T16:02:45.039Z,2.35
2022-11-01T16:05:16.169Z,2.50
2022-11-01T16:07:43.869Z,2.15
2022-11-01T16:10:25.932Z,2.78
2022-11-01T16:12:54.479Z,2.30
2022-11-01T16:15:25.357Z,1.88
2022-11-01T16:17:54.405Z,2.47
2022-11-01T16:20:30.390Z,2.08
2022-11-01T16:22:59.476Z,2.13
2022-11-01T16:25:28.230Z,2.08
2022-11-01T16:27:57.877Z,2.33
2022-11-01T16:30:35.966Z,2.03
2022-11-01T16:33:23.663Z,2.13
2022-11-01T16:35:52.222Z,2.00
2022-11-01T16:38:33.587Z,2.10
2022-11-01T16:41:01.729Z,2.30
2022-11-01T16:43:31.016Z,2.38
2022-11-01T16:45:58.863Z,2.45
2022-11-01T16:48:28.101Z,2.13
2022-11-01T16:50:56.370Z,1.90
2022-11-01T16:53:25.642Z,2.63
2022-11-01T16:56:05.920Z,2.05
2022-11-01T16:58:47.375Z,2.38
2022-11-01T17:01:23.558Z,2.47
2022-11-01T17:03:50.177Z,2.10
2022-11-01T17:06:16.741Z,2.47
2022-11-01T17:08:43.060Z,2.58
2022-11-01T17:11:09.427Z,2.00
2022-11-01T17:13:36.549Z,2.42
2022-11-01T17:16:04.567Z,2.63
2022-11-01T17:18:36.198Z,2.53
2022-11-01T17:21:06.682Z,2.28
2022-11-01T17:23:34.148Z,2.53
2022-11-01T17:26:02.483Z,2.40
2022-11-01T17:28:28.806Z,2.67
2022-11-01T17:30:55.314Z,2.75
2022-11-01T17:33:22.109Z,2.75
2022-11-01T17:35:48.765Z,2.28
2022-11-01T17:38:30.068Z,2.42
2022-11-01T17:40:56.911Z,2.22
2022-11-01T17:43:23.409Z,1.98
2022-11-01T17:45:50.577Z,2.22
2022-11-01T17:48:17.826Z,2.00
2022-11-01T17:50:44.581Z,2.00
2022-11-01T17:53:13.384Z,1.67
2022-11-01T17:55:40.417Z,2.03
2022-11-01T17:58:07.496Z,2.10
2022-11-01T18:00:33.880Z,1.83
2022-11-01T18:03:00.213Z,1.98
2022-11-01T18:05:26.637Z,2.17
2022-11-01T18:07:53.250Z,2.20
2022-11-01T18:10:21.288Z,1.90
2022-11-01T18:12:57.167Z,2.13
2022-11-01T18:15:38.071Z,1.80
2022-11-01T18:18:33.660Z,1.98
2022-11-01T18:21:25.843Z,1.80
2022-11-01T18:23:55.777Z,1.90
2022-11-01T18:26:25.765Z,1.75
2022-11-01T18:28:59.924Z,2.08
2022-11-01T18:31:34.815Z,1.67
2022-11-01T18:36:47.336Z,2.47
2022-11-01T18:39:26.014Z,2.08
2022-11-01T18:41:52.430Z,1.85
2022-11-01T18:44:18.764Z,2.35
2022-11-01T18:46:56.431Z,1.60
2022-11-01T18:49:26.570Z,1.98
2022-11-01T18:51:53.608Z,1.92
2022-11-01T18:54:25.493Z,2.08
2022-11-01T18:56:57.719Z,2.28
2022-11-01T18:59:32.459Z,2.25
2022-11-01T19:02:11.129Z,1.83
2022-11-01T19:04:39.913Z,2.33
2022-11-01T19:07:13.532Z,2.30
2022-11-01T19:09:41.324Z,1.65
2022-11-01T19:12:17.228Z,1.95
2022-11-01T19:14:46.497Z,1.80
2022-11-01T19:17:24.180Z,1.70
2022-11-01T19:19:52.472Z,2.28
2022-11-01T19:22:33.027Z,1.95
2022-11-01T19:25:01.401Z,2.10
2022-11-01T19:27:28.630Z,2.20
2022-11-01T19:29:58.111Z,1.88
2022-11-01T19:32:25.983Z,2.03
2022-11-01T19:34:53.792Z,1.67
2022-11-01T19:37:31.825Z,1.90
2022-11-01T19:40:01.347Z,2.05
2022-11-01T19:42:30.846Z,2.20
2022-11-01T19:44:58.630Z,2.03
2022-11-01T19:47:35.509Z,1.95
2022-11-01T19:50:01.989Z,1.83
2022-11-01T19:52:32.621Z,1.98
2022-11-01T19:54:58.961Z,2.08
2022-11-01T19:57:31.587Z,1.85
2022-11-01T20:00:14.929Z,1.83
2022-11-01T20:02:41.500Z,2.22
2022-11-01T20:05:23.037Z,1.98
2022-11-01T20:07:50.264Z,2.15
2022-11-01T20:10:17.673Z,1.90
2022-11-01T20:12:44.954Z,1.83
2022-11-01T20:15:11.435Z,1.90
2022-11-01T20:17:37.849Z,2.20
2022-11-01T20:20:04.460Z,1.80
2022-11-01T20:22:30.799Z,2.03
2022-11-01T20:24:57.236Z,1.50
2022-11-01T20:27:23.597Z,1.80
2022-11-01T20:29:50.003Z,1.73
2022-11-01T20:32:16.422Z,2.08
2022-11-01T20:34:42.815Z,2.08
2022-11-01T20:37:27.543Z,1.80
2022-11-01T20:39:54.747Z,2.13
2022-11-01T20:42:21.092Z,1.90
2022-11-01T20:44:47.401Z,2.22
2022-11-01T20:47:13.748Z,2.03
2022-11-01T20:49:40.544Z,2.33
2022-11-01T20:52:33.636Z,1.80
2022-11-01T20:54:53.257Z,1.92
2022-11-01T20:57:27.497Z,1.75
2022-11-01T20:59:54.736Z,2.25
2022-11-01T21:02:21.172Z,1.98
2022-11-01T21:04:54.993Z,1.77
2022-11-01T21:07:21.369Z,1.80
2022-11-01T21:09:47.780Z,2.20
2022-11-01T21:12:32.219Z,2.30
2022-11-01T21:15:02.310Z,2.40
2022-11-01T21:17:29.003Z,2.38
2022-11-01T21:19:55.389Z,2.28
2022-11-01T21:22:21.806Z,2.13
2022-11-01T21:24:49.491Z,2.25
2022-11-01T21:27:41.874Z,2.78
2022-11-01T21:30:19.639Z,1.98
2022-11-01T21:32:46.579Z,2.00
2022-11-01T21:35:38.714Z,2.53
2022-11-01T21:38:33.547Z,2.15
2022-11-01T21:41:00.389Z,1.88
2022-11-01T21:43:33.196Z,2.42
2022-11-01T21:45:59.499Z,2.42
2022-11-01T21:48:29.126Z,2.63
2022-11-01T21:50:56.268Z,1.80
2022-11-01T21:53:22.632Z,2.08
2022-11-01T21:55:49.062Z,2.30
2022-11-01T21:58:15.375Z,1.70
2022-11-01T22:00:41.750Z,3.05
2022-11-01T22:03:08.079Z,2.15
2022-11-01T22:05:34.411Z,2.00
2022-11-01T22:08:00.714Z,2.20
2022-11-01T22:10:27.049Z,2.13
2022-11-01T22:12:53.504Z,2.33
2022-11-01T22:15:19.832Z,2.78
2022-11-01T22:17:46.239Z,2.10
2022-11-01T22:20:12.667Z,2.22
2022-11-01T22:22:38.993Z,2.55
2022-11-01T22:25:05.803Z,2.35
2022-11-01T22:27:32.104Z,2.38
2022-11-01T22:29:58.463Z,2.30
2022-11-01T22:32:24.818Z,2.67
2022-11-01T22:34:51.671Z,3.08
2022-11-01T22:37:18.009Z,2.30
2022-11-01T22:39:46.955Z,2.58
2022-11-01T22:42:15.789Z,2.08
2022-11-01T22:44:46.084Z,2.38
2022-11-01T22:47:27.944Z,2.45
2022-11-01T22:49:57.042Z,2.47
2022-11-01T22:52:26.052Z,2.95
2022-11-01T22:55:02.268Z,2.47
2022-11-01T22:57:32.840Z,2.22
2022-11-01T23:00:02.195Z,2.28
2022-11-01T23:02:29.559Z,2.60
2022-11-01T23:05:08.337Z,2.45
2022-11-01T23:07:35.773Z,2.90
2022-11-01T23:10:19.958Z,2.35
2022-11-01T23:12:46.469Z,2.03
2022-11-01T23:15:30.575Z,2.75
2022-11-01T23:18:15.507Z,2.53
2022-11-01T23:20:43.236Z,2.00
2022-11-01T23:23:17.863Z,2.17
2022-11-01T23:25:44.510Z,2.08
2022-11-01T23:28:12.241Z,2.67
2022-11-01T23:30:39.504Z,3.03
2022-11-01T23:33:11.554Z,2.30
2022-11-01T23:35:37.864Z,2.17
2022-11-01T23:38:15.235Z,2.17
2022-11-01T23:40:41.772Z,3.72
2022-11-01T23:43:20.650Z,3.67
2022-11-01T23:45:47.357Z,2.72
2022-11-01T23:48:13.723Z,2.40
2022-11-01T23:50:40.041Z,2.67
2022-11-01T23:53:12.088Z,2.17
2022-11-01T23:55:40.953Z,2.40
2022-11-01T23:58:11.729Z,2.08
